sensor_id;sensor_type;location;lat;lon;timestamp;pressure;altitude;pressure_sealevel;temperature;humidity
56176;BME280;63065;51.082;17.016;2023-04-04T00:01:53;101417.78;;;6.29;29.37
56176;BME280;63065;51.082;17.016;2023-04-04T00:04:19;101415.57;;;6.42;29.76
56176;BME280;63065;51.082;17.016;2023-04-04T00:06:43;101414.79;;;6.51;29.07
56176;BME280;63065;51.082;17.016;2023-04-04T00:09:09;101413.17;;;6.50;29.31
56176;BME280;63065;51.082;17.016;2023-04-04T00:11:34;101414.86;;;6.25;30.08
56176;BME280;63065;51.082;17.016;2023-04-04T00:14:00;101409.33;;;6.08;30.00
56176;BME280;63065;51.082;17.016;2023-04-04T00:16:25;101407.39;;;6.16;30.11
56176;BME280;63065;51.082;17.016;2023-04-04T00:18:50;101405.37;;;6.14;29.96
56176;BME280;63065;51.082;17.016;2023-04-04T00:21:16;101401.51;;;6.07;30.13
56176;BME280;63065;51.082;17.016;2023-04-04T00:23:41;101398.27;;;6.10;29.40
56176;BME280;63065;51.082;17.016;2023-04-04T00:26:06;101400.30;;;5.95;30.00
56176;BME280;63065;51.082;17.016;2023-04-04T00:28:32;101392.88;;;6.22;29.56
56176;BME280;63065;51.082;17.016;2023-04-04T00:30:57;101390.45;;;6.05;31.01
56176;BME280;63065;51.082;17.016;2023-04-04T00:33:22;101392.47;;;6.03;30.38
56176;BME280;63065;51.082;17.016;2023-04-04T00:35:47;101387.70;;;6.39;30.09
56176;BME280;63065;51.082;17.016;2023-04-04T00:38:12;101392.40;;;6.16;30.17
56176;BME280;63065;51.082;17.016;2023-04-04T00:40:41;101389.61;;;6.06;30.55
56176;BME280;63065;51.082;17.016;2023-04-04T00:43:03;101386.93;;;6.46;29.81
56176;BME280;63065;51.082;17.016;2023-04-04T00:45:28;101384.79;;;6.42;30.09
56176;BME280;63065;51.082;17.016;2023-04-04T00:47:54;101384.18;;;6.19;30.29
56176;BME280;63065;51.082;17.016;2023-04-04T00:50:19;101381.73;;;5.97;29.89
56176;BME280;63065;51.082;17.016;2023-04-04T00:52:45;101382.13;;;5.55;30.51
56176;BME280;63065;51.082;17.016;2023-04-04T00:55:10;101377.67;;;5.73;31.14
56176;BME280;63065;51.082;17.016;2023-04-04T00:57:35;101377.14;;;6.00;29.89
56176;BME280;63065;51.082;17.016;2023-04-04T01:00:02;101378.32;;;5.81;30.97
56176;BME280;63065;51.082;17.016;2023-04-04T01:02:26;101375.13;;;5.91;30.20
56176;BME280;63065;51.082;17.016;2023-04-04T01:04:52;101374.91;;;5.96;30.49
56176;BME280;63065;51.082;17.016;2023-04-04T01:07:17;101377.28;;;5.94;30.77
56176;BME280;63065;51.082;17.016;2023-04-04T01:09:42;101374.40;;;5.93;30.12
56176;BME280;63065;51.082;17.016;2023-04-04T01:12:08;101374.91;;;5.26;30.41
56176;BME280;63065;51.082;17.016;2023-04-04T01:14:33;101372.83;;;5.36;30.03
56176;BME280;63065;51.082;17.016;2023-04-04T01:16:59;101370.86;;;4.81;30.56
56176;BME280;63065;51.082;17.016;2023-04-04T01:19:31;101366.41;;;5.49;31.00
56176;BME280;63065;51.082;17.016;2023-04-04T01:21:51;101366.33;;;5.41;30.77
56176;BME280;63065;51.082;17.016;2023-04-04T01:24:16;101361.07;;;5.55;30.54
56176;BME280;63065;51.082;17.016;2023-04-04T01:26:40;101354.56;;;5.71;30.79
56176;BME280;63065;51.082;17.016;2023-04-04T01:29:06;101358.34;;;5.67;30.80
56176;BME280;63065;51.082;17.016;2023-04-04T01:31:38;101355.40;;;5.47;30.34
56176;BME280;63065;51.082;17.016;2023-04-04T01:34:03;101354.31;;;5.57;30.53
56176;BME280;63065;51.082;17.016;2023-04-04T01:36:27;101348.47;;;5.54;30.57
56176;BME280;63065;51.082;17.016;2023-04-04T01:38:53;101345.64;;;5.44;30.33
56176;BME280;63065;51.082;17.016;2023-04-04T01:41:13;101343.07;;;5.66;30.43
56176;BME280;63065;51.082;17.016;2023-04-04T01:43:38;101341.31;;;5.36;30.68
56176;BME280;63065;51.082;17.016;2023-04-04T01:46:04;101340.56;;;5.18;31.03
56176;BME280;63065;51.082;17.016;2023-04-04T01:48:28;101338.51;;;5.65;30.07
56176;BME280;63065;51.082;17.016;2023-04-04T01:50:54;101335.41;;;5.39;30.28
56176;BME280;63065;51.082;17.016;2023-04-04T01:53:20;101334.24;;;5.59;29.41
56176;BME280;63065;51.082;17.016;2023-04-04T01:55:45;101336.72;;;5.62;30.18
56176;BME280;63065;51.082;17.016;2023-04-04T01:58:10;101331.94;;;5.51;29.92
56176;BME280;63065;51.082;17.016;2023-04-04T02:00:36;101330.63;;;5.71;29.78
56176;BME280;63065;51.082;17.016;2023-04-04T02:03:02;101329.44;;;4.95;30.34
56176;BME280;63065;51.082;17.016;2023-04-04T02:05:27;101330.27;;;5.17;30.58
56176;BME280;63065;51.082;17.016;2023-04-04T02:07:53;101333.15;;;5.49;29.99
56176;BME280;63065;51.082;17.016;2023-04-04T02:10:18;101342.74;;;5.43;29.29
56176;BME280;63065;51.082;17.016;2023-04-04T02:12:43;101335.06;;;5.06;30.30
56176;BME280;63065;51.082;17.016;2023-04-04T02:15:09;101332.54;;;4.94;31.34
56176;BME280;63065;51.082;17.016;2023-04-04T02:17:33;101330.64;;;4.82;30.97
56176;BME280;63065;51.082;17.016;2023-04-04T02:19:58;101334.91;;;5.14;31.08
56176;BME280;63065;51.082;17.016;2023-04-04T02:22:24;101333.76;;;4.15;31.75
56176;BME280;63065;51.082;17.016;2023-04-04T02:24:49;101336.16;;;4.27;32.78
56176;BME280;63065;51.082;17.016;2023-04-04T02:27:15;101330.24;;;4.33;33.94
56176;BME280;63065;51.082;17.016;2023-04-04T02:29:41;101326.68;;;4.83;33.10
56176;BME280;63065;51.082;17.016;2023-04-04T02:32:06;101324.01;;;5.39;32.15
56176;BME280;63065;51.082;17.016;2023-04-04T02:34:32;101326.32;;;5.48;32.53
56176;BME280;63065;51.082;17.016;2023-04-04T02:36:57;101328.92;;;5.18;32.26
56176;BME280;63065;51.082;17.016;2023-04-04T02:39:22;101329.49;;;5.42;30.79
56176;BME280;63065;51.082;17.016;2023-04-04T02:41:47;101330.50;;;5.42;31.09
56176;BME280;63065;51.082;17.016;2023-04-04T02:44:13;101335.37;;;5.61;31.85
56176;BME280;63065;51.082;17.016;2023-04-04T02:46:38;101336.31;;;5.61;30.56
56176;BME280;63065;51.082;17.016;2023-04-04T02:49:03;101333.89;;;5.19;31.29
56176;BME280;63065;51.082;17.016;2023-04-04T02:51:29;101335.69;;;5.66;31.15
56176;BME280;63065;51.082;17.016;2023-04-04T02:53:55;101336.95;;;5.60;31.14
56176;BME280;63065;51.082;17.016;2023-04-04T02:56:19;101336.22;;;5.48;31.28
56176;BME280;63065;51.082;17.016;2023-04-04T02:58:44;101339.03;;;5.60;32.03
56176;BME280;63065;51.082;17.016;2023-04-04T03:01:10;101338.95;;;5.39;32.41
56176;BME280;63065;51.082;17.016;2023-04-04T03:03:35;101335.67;;;5.08;32.10
56176;BME280;63065;51.082;17.016;2023-04-04T03:06:00;101335.81;;;5.20;32.22
56176;BME280;63065;51.082;17.016;2023-04-04T03:08:26;101335.41;;;5.65;31.32
56176;BME280;63065;51.082;17.016;2023-04-04T03:10:51;101334.55;;;5.58;31.05
56176;BME280;63065;51.082;17.016;2023-04-04T03:13:17;101339.58;;;5.39;31.33
56176;BME280;63065;51.082;17.016;2023-04-04T03:15:42;101340.93;;;5.16;32.39
56176;BME280;63065;51.082;17.016;2023-04-04T03:18:07;101342.54;;;5.16;31.54
56176;BME280;63065;51.082;17.016;2023-04-04T03:20:33;101338.52;;;5.31;32.02
56176;BME280;63065;51.082;17.016;2023-04-04T03:22:58;101337.42;;;5.67;32.13
56176;BME280;63065;51.082;17.016;2023-04-04T03:25:24;101336.81;;;5.45;31.62
56176;BME280;63065;51.082;17.016;2023-04-04T03:27:49;101334.74;;;5.47;31.22
56176;BME280;63065;51.082;17.016;2023-04-04T03:30:15;101334.12;;;5.37;31.91
56176;BME280;63065;51.082;17.016;2023-04-04T03:32:40;101338.05;;;4.90;33.33
56176;BME280;63065;51.082;17.016;2023-04-04T03:35:06;101335.91;;;5.29;32.41
56176;BME280;63065;51.082;17.016;2023-04-04T03:37:31;101336.91;;;5.20;32.75
56176;BME280;63065;51.082;17.016;2023-04-04T03:39:56;101338.29;;;5.46;33.08
56176;BME280;63065;51.082;17.016;2023-04-04T03:42:22;101335.93;;;5.56;32.47
56176;BME280;63065;51.082;17.016;2023-04-04T03:44:47;101333.75;;;5.27;32.19
56176;BME280;63065;51.082;17.016;2023-04-04T03:47:13;101337.80;;;5.05;32.80
56176;BME280;63065;51.082;17.016;2023-04-04T03:49:38;101338.10;;;5.26;32.18
56176;BME280;63065;51.082;17.016;2023-04-04T03:52:03;101334.53;;;5.30;33.55
56176;BME280;63065;51.082;17.016;2023-04-04T03:54:28;101336.84;;;5.81;32.46
56176;BME280;63065;51.082;17.016;2023-04-04T03:56:54;101335.48;;;5.05;32.79
56176;BME280;63065;51.082;17.016;2023-04-04T03:59:19;101338.04;;;5.36;32.46
56176;BME280;63065;51.082;17.016;2023-04-04T04:01:45;101341.61;;;5.26;32.54
56176;BME280;63065;51.082;17.016;2023-04-04T04:04:10;101343.21;;;5.19;33.61
56176;BME280;63065;51.082;17.016;2023-04-04T04:06:35;101341.92;;;4.86;32.87
56176;BME280;63065;51.082;17.016;2023-04-04T04:09:01;101344.17;;;4.97;33.02
56176;BME280;63065;51.082;17.016;2023-04-04T04:11:26;101342.24;;;5.17;33.05
56176;BME280;63065;51.082;17.016;2023-04-04T04:13:51;101338.54;;;4.68;33.74
56176;BME280;63065;51.082;17.016;2023-04-04T04:16:16;101341.35;;;4.67;33.98
56176;BME280;63065;51.082;17.016;2023-04-04T04:18:42;101342.29;;;4.68;34.02
56176;BME280;63065;51.082;17.016;2023-04-04T04:21:07;101344.30;;;5.04;34.57
56176;BME280;63065;51.082;17.016;2023-04-04T04:23:33;101344.13;;;5.19;33.55
56176;BME280;63065;51.082;17.016;2023-04-04T04:25:59;101343.24;;;5.30;33.92
56176;BME280;63065;51.082;17.016;2023-04-04T04:28:24;101342.31;;;5.23;34.27
56176;BME280;63065;51.082;17.016;2023-04-04T04:30:49;101343.61;;;4.93;33.43
56176;BME280;63065;51.082;17.016;2023-04-04T04:33:15;101342.28;;;5.05;33.75
56176;BME280;63065;51.082;17.016;2023-04-04T04:35:40;101341.77;;;5.39;33.04
56176;BME280;63065;51.082;17.016;2023-04-04T04:38:06;101342.04;;;4.93;33.85
56176;BME280;63065;51.082;17.016;2023-04-04T04:40:31;101338.56;;;5.17;33.07
56176;BME280;63065;51.082;17.016;2023-04-04T04:42:57;101334.56;;;5.50;33.07
56176;BME280;63065;51.082;17.016;2023-04-04T04:45:22;101333.29;;;5.30;33.65
56176;BME280;63065;51.082;17.016;2023-04-04T04:47:47;101334.01;;;5.36;33.01
56176;BME280;63065;51.082;17.016;2023-04-04T04:50:12;101336.02;;;5.74;32.45
56176;BME280;63065;51.082;17.016;2023-04-04T04:52:37;101335.11;;;5.42;32.80
56176;BME280;63065;51.082;17.016;2023-04-04T04:55:04;101337.19;;;5.30;33.07
56176;BME280;63065;51.082;17.016;2023-04-04T04:57:28;101340.11;;;4.72;33.66
56176;BME280;63065;51.082;17.016;2023-04-04T04:59:54;101338.78;;;5.18;33.11
56176;BME280;63065;51.082;17.016;2023-04-04T05:02:20;101335.21;;;5.30;33.24
56176;BME280;63065;51.082;17.016;2023-04-04T05:04:45;101335.75;;;5.27;33.55
56176;BME280;63065;51.082;17.016;2023-04-04T05:07:10;101336.95;;;5.28;33.36
56176;BME280;63065;51.082;17.016;2023-04-04T05:09:35;101340.24;;;5.27;31.99
56176;BME280;63065;51.082;17.016;2023-04-04T05:12:00;101342.17;;;5.52;31.68
56176;BME280;63065;51.082;17.016;2023-04-04T05:14:26;101348.24;;;5.72;32.56
56176;BME280;63065;51.082;17.016;2023-04-04T05:16:52;101347.70;;;5.43;31.58
56176;BME280;63065;51.082;17.016;2023-04-04T05:19:17;101346.99;;;5.70;32.51
56176;BME280;63065;51.082;17.016;2023-04-04T05:21:42;101347.00;;;6.11;31.36
56176;BME280;63065;51.082;17.016;2023-04-04T05:24:08;101348.97;;;5.76;30.88
56176;BME280;63065;51.082;17.016;2023-04-04T05:26:32;101350.83;;;5.71;31.25
56176;BME280;63065;51.082;17.016;2023-04-04T05:28:58;101350.30;;;5.17;33.08
56176;BME280;63065;51.082;17.016;2023-04-04T05:31:23;101353.95;;;5.71;30.96
56176;BME280;63065;51.082;17.016;2023-04-04T05:33:49;101355.20;;;5.39;31.33
56176;BME280;63065;51.082;17.016;2023-04-04T05:36:14;101356.85;;;5.06;31.81
56176;BME280;63065;51.082;17.016;2023-04-04T05:38:39;101354.93;;;5.13;31.04
56176;BME280;63065;51.082;17.016;2023-04-04T05:41:05;101357.81;;;5.12;32.22
56176;BME280;63065;51.082;17.016;2023-04-04T05:43:30;101358.19;;;5.15;31.79
56176;BME280;63065;51.082;17.016;2023-04-04T05:45:56;101360.53;;;5.04;31.74
56176;BME280;63065;51.082;17.016;2023-04-04T05:48:21;101360.67;;;4.48;32.62
56176;BME280;63065;51.082;17.016;2023-04-04T05:50:47;101356.00;;;4.90;32.30
56176;BME280;63065;51.082;17.016;2023-04-04T05:53:12;101359.15;;;5.05;33.17
56176;BME280;63065;51.082;17.016;2023-04-04T05:55:38;101362.78;;;5.17;31.95
56176;BME280;63065;51.082;17.016;2023-04-04T05:58:03;101363.54;;;5.14;32.19
56176;BME280;63065;51.082;17.016;2023-04-04T06:00:29;101362.00;;;5.34;31.75
56176;BME280;63065;51.082;17.016;2023-04-04T06:02:55;101353.57;;;5.14;31.24
56176;BME280;63065;51.082;17.016;2023-04-04T06:05:20;101349.61;;;5.36;31.78
56176;BME280;63065;51.082;17.016;2023-04-04T06:07:45;101343.77;;;5.33;30.77
56176;BME280;63065;51.082;17.016;2023-04-04T06:10:11;101343.92;;;5.76;30.76
56176;BME280;63065;51.082;17.016;2023-04-04T06:12:37;101349.57;;;5.57;30.90
56176;BME280;63065;51.082;17.016;2023-04-04T06:15:02;101353.08;;;5.69;30.48
56176;BME280;63065;51.082;17.016;2023-04-04T06:17:27;101352.65;;;5.51;30.97
56176;BME280;63065;51.082;17.016;2023-04-04T06:19:53;101346.89;;;5.95;30.11
56176;BME280;63065;51.082;17.016;2023-04-04T06:22:19;101345.46;;;5.78;29.71
56176;BME280;63065;51.082;17.016;2023-04-04T06:24:43;101345.38;;;5.92;29.98
56176;BME280;63065;51.082;17.016;2023-04-04T06:27:09;101344.09;;;6.41;30.57
56176;BME280;63065;51.082;17.016;2023-04-04T06:29:34;101346.57;;;5.83;28.50
56176;BME280;63065;51.082;17.016;2023-04-04T06:32:00;101347.14;;;5.67;29.01
56176;BME280;63065;51.082;17.016;2023-04-04T06:34:25;101351.04;;;4.74;30.64
56176;BME280;63065;51.082;17.016;2023-04-04T06:36:50;101346.64;;;5.40;31.75
56176;BME280;63065;51.082;17.016;2023-04-04T06:39:16;101346.78;;;5.74;30.35
56176;BME280;63065;51.082;17.016;2023-04-04T06:41:41;101344.76;;;5.23;30.09
56176;BME280;63065;51.082;17.016;2023-04-04T06:44:07;101345.01;;;5.06;30.49
56176;BME280;63065;51.082;17.016;2023-04-04T06:46:32;101346.35;;;5.06;31.01
56176;BME280;63065;51.082;17.016;2023-04-04T06:48:58;101343.80;;;4.93;30.11
56176;BME280;63065;51.082;17.016;2023-04-04T06:51:24;101342.13;;;5.32;30.90
56176;BME280;63065;51.082;17.016;2023-04-04T06:53:49;101347.12;;;5.22;30.00
56176;BME280;63065;51.082;17.016;2023-04-04T06:56:14;101342.06;;;5.29;29.73
56176;BME280;63065;51.082;17.016;2023-04-04T06:58:40;101339.97;;;5.11;31.17
56176;BME280;63065;51.082;17.016;2023-04-04T07:01:06;101340.67;;;5.75;30.25
56176;BME280;63065;51.082;17.016;2023-04-04T07:03:31;101341.47;;;5.42;29.54
56176;BME280;63065;51.082;17.016;2023-04-04T07:05:57;101339.73;;;5.56;28.99
56176;BME280;63065;51.082;17.016;2023-04-04T07:08:22;101340.82;;;6.07;30.03
56176;BME280;63065;51.082;17.016;2023-04-04T07:10:47;101341.69;;;6.32;28.39
56176;BME280;63065;51.082;17.016;2023-04-04T07:13:12;101342.04;;;6.09;29.03
56176;BME280;63065;51.082;17.016;2023-04-04T07:15:37;101344.21;;;5.94;29.46
56176;BME280;63065;51.082;17.016;2023-04-04T07:18:02;101344.99;;;6.13;29.85
56176;BME280;63065;51.082;17.016;2023-04-04T07:20:28;101345.49;;;6.55;28.77
56176;BME280;63065;51.082;17.016;2023-04-04T07:22:53;101344.19;;;6.47;28.32
56176;BME280;63065;51.082;17.016;2023-04-04T07:25:19;101341.90;;;6.38;27.79
56176;BME280;63065;51.082;17.016;2023-04-04T07:27:45;101339.95;;;6.50;29.01
56176;BME280;63065;51.082;17.016;2023-04-04T07:30:11;101339.46;;;6.53;28.11
56176;BME280;63065;51.082;17.016;2023-04-04T07:32:35;101342.61;;;6.15;28.30
56176;BME280;63065;51.082;17.016;2023-04-04T07:35:01;101339.84;;;6.68;27.41
56176;BME280;63065;51.082;17.016;2023-04-04T07:37:26;101338.44;;;7.28;25.65
56176;BME280;63065;51.082;17.016;2023-04-04T07:39:52;101339.79;;;7.23;26.60
56176;BME280;63065;51.082;17.016;2023-04-04T07:42:17;101342.39;;;7.56;27.71
56176;BME280;63065;51.082;17.016;2023-04-04T07:44:42;101341.18;;;6.94;26.95
56176;BME280;63065;51.082;17.016;2023-04-04T07:47:08;101347.15;;;6.58;26.17
56176;BME280;63065;51.082;17.016;2023-04-04T07:49:33;101341.29;;;6.53;27.08
56176;BME280;63065;51.082;17.016;2023-04-04T07:51:58;101337.01;;;7.06;25.61
56176;BME280;63065;51.082;17.016;2023-04-04T07:54:24;101349.00;;;5.97;26.74
56176;BME280;63065;51.082;17.016;2023-04-04T07:56:49;101346.79;;;6.33;26.84
56176;BME280;63065;51.082;17.016;2023-04-04T07:59:14;101345.60;;;6.97;26.19
56176;BME280;63065;51.082;17.016;2023-04-04T08:01:39;101347.30;;;6.79;25.76
56176;BME280;63065;51.082;17.016;2023-04-04T08:04:04;101341.65;;;7.07;25.20
56176;BME280;63065;51.082;17.016;2023-04-04T08:06:30;101341.85;;;7.11;25.80
56176;BME280;63065;51.082;17.016;2023-04-04T08:08:55;101343.63;;;7.72;26.05
56176;BME280;63065;51.082;17.016;2023-04-04T08:11:20;101342.71;;;8.05;23.97
56176;BME280;63065;51.082;17.016;2023-04-04T08:13:45;101341.57;;;7.28;25.11
56176;BME280;63065;51.082;17.016;2023-04-04T08:16:11;101337.21;;;6.98;24.20
56176;BME280;63065;51.082;17.016;2023-04-04T08:18:36;101335.66;;;6.97;24.53
56176;BME280;63065;51.082;17.016;2023-04-04T08:21:01;101338.85;;;6.50;26.25
56176;BME280;63065;51.082;17.016;2023-04-04T08:23:27;101338.43;;;6.60;26.17
56176;BME280;63065;51.082;17.016;2023-04-04T08:25:52;101340.03;;;6.82;26.08
56176;BME280;63065;51.082;17.016;2023-04-04T08:28:17;101333.69;;;6.70;26.73
56176;BME280;63065;51.082;17.016;2023-04-04T08:30:42;101337.72;;;6.90;26.20
56176;BME280;63065;51.082;17.016;2023-04-04T08:33:08;101339.59;;;6.68;26.13
56176;BME280;63065;51.082;17.016;2023-04-04T08:35:33;101341.71;;;6.67;26.89
56176;BME280;63065;51.082;17.016;2023-04-04T08:37:59;101340.07;;;6.72;27.30
56176;BME280;63065;51.082;17.016;2023-04-04T08:40:25;101338.28;;;6.82;25.81
56176;BME280;63065;51.082;17.016;2023-04-04T08:42:50;101335.49;;;6.58;27.23
56176;BME280;63065;51.082;17.016;2023-04-04T08:45:17;101335.05;;;6.08;27.30
56176;BME280;63065;51.082;17.016;2023-04-04T08:47:41;101335.18;;;6.35;25.67
56176;BME280;63065;51.082;17.016;2023-04-04T08:50:07;101332.71;;;6.16;27.82
56176;BME280;63065;51.082;17.016;2023-04-04T08:52:32;101329.29;;;6.74;26.36
56176;BME280;63065;51.082;17.016;2023-04-04T08:54:57;101329.61;;;6.53;26.90
56176;BME280;63065;51.082;17.016;2023-04-04T08:57:22;101323.07;;;6.63;25.44
56176;BME280;63065;51.082;17.016;2023-04-04T08:59:47;101326.76;;;6.52;26.39
56176;BME280;63065;51.082;17.016;2023-04-04T09:02:27;101317.83;;;7.10;24.60
56176;BME280;63065;51.082;17.016;2023-04-04T09:04:40;101318.24;;;6.67;26.00
56176;BME280;63065;51.082;17.016;2023-04-04T09:07:04;101317.70;;;6.74;25.33
56176;BME280;63065;51.082;17.016;2023-04-04T09:09:29;101318.09;;;6.93;25.89
56176;BME280;63065;51.082;17.016;2023-04-04T09:11:53;101316.95;;;6.76;25.31
56176;BME280;63065;51.082;17.016;2023-04-04T09:14:20;101315.75;;;6.50;26.11
56176;BME280;63065;51.082;17.016;2023-04-04T09:16:44;101311.38;;;6.46;25.88
56176;BME280;63065;51.082;17.016;2023-04-04T09:19:09;101310.51;;;6.70;25.87
56176;BME280;63065;51.082;17.016;2023-04-04T09:21:34;101303.68;;;6.62;26.02
56176;BME280;63065;51.082;17.016;2023-04-04T09:24:01;101307.16;;;6.72;25.77
56176;BME280;63065;51.082;17.016;2023-04-04T09:26:25;101306.83;;;6.26;26.21
56176;BME280;63065;51.082;17.016;2023-04-04T09:28:52;101312.83;;;6.41;26.18
56176;BME280;63065;51.082;17.016;2023-04-04T09:31:16;101311.80;;;6.57;25.26
56176;BME280;63065;51.082;17.016;2023-04-04T09:33:42;101310.27;;;7.25;25.78
56176;BME280;63065;51.082;17.016;2023-04-04T09:36:10;101306.01;;;7.58;25.07
56176;BME280;63065;51.082;17.016;2023-04-04T09:38:36;101314.19;;;7.99;24.61
56176;BME280;63065;51.082;17.016;2023-04-04T09:40:57;101316.00;;;7.37;25.24
56176;BME280;63065;51.082;17.016;2023-04-04T09:43:24;101311.22;;;7.31;25.53
56176;BME280;63065;51.082;17.016;2023-04-04T09:45:49;101317.54;;;6.88;25.47
56176;BME280;63065;51.082;17.016;2023-04-04T09:50:45;101320.04;;;6.88;25.47
56176;BME280;63065;51.082;17.016;2023-04-04T09:53:03;101318.41;;;6.21;26.86
56176;BME280;63065;51.082;17.016;2023-04-04T09:55:32;101318.63;;;5.55;27.14
56176;BME280;63065;51.082;17.016;2023-04-04T09:57:53;101313.11;;;6.81;26.96
56176;BME280;63065;51.082;17.016;2023-04-04T10:00:19;101319.23;;;7.56;25.84
56176;BME280;63065;51.082;17.016;2023-04-04T10:02:47;101312.49;;;7.61;25.85
56176;BME280;63065;51.082;17.016;2023-04-04T10:05:10;101316.85;;;8.20;25.47
56176;BME280;63065;51.082;17.016;2023-04-04T10:07:37;101318.71;;;8.09;24.45
56176;BME280;63065;51.082;17.016;2023-04-04T10:10:01;101318.52;;;8.20;24.69
56176;BME280;63065;51.082;17.016;2023-04-04T10:12:25;101318.29;;;8.15;26.10
56176;BME280;63065;51.082;17.016;2023-04-04T10:14:55;101314.75;;;7.71;24.53
56176;BME280;63065;51.082;17.016;2023-04-04T10:17:17;101310.57;;;8.11;25.45
56176;BME280;63065;51.082;17.016;2023-04-04T10:19:42;101305.93;;;7.72;24.28
56176;BME280;63065;51.082;17.016;2023-04-04T10:22:07;101298.67;;;8.45;25.41
56176;BME280;63065;51.082;17.016;2023-04-04T10:24:33;101302.72;;;8.19;24.20
56176;BME280;63065;51.082;17.016;2023-04-04T10:26:58;101295.19;;;7.10;24.20
56176;BME280;63065;51.082;17.016;2023-04-04T10:29:23;101296.22;;;7.86;25.98
56176;BME280;63065;51.082;17.016;2023-04-04T10:31:56;101292.10;;;8.04;24.58
56176;BME280;63065;51.082;17.016;2023-04-04T10:34:19;101284.80;;;8.10;24.84
56176;BME280;63065;51.082;17.016;2023-04-04T10:36:44;101285.96;;;7.99;24.93
56176;BME280;63065;51.082;17.016;2023-04-04T10:39:09;101294.54;;;8.15;25.35
56176;BME280;63065;51.082;17.016;2023-04-04T10:41:30;101287.45;;;7.52;25.22
56176;BME280;63065;51.082;17.016;2023-04-04T10:43:55;101288.40;;;7.82;25.15
56176;BME280;63065;51.082;17.016;2023-04-04T10:46:22;101287.76;;;8.34;24.75
56176;BME280;63065;51.082;17.016;2023-04-04T10:48:46;101290.88;;;8.28;25.60
56176;BME280;63065;51.082;17.016;2023-04-04T10:51:10;101291.53;;;8.29;24.29
56176;BME280;63065;51.082;17.016;2023-04-04T10:53:36;101287.43;;;7.40;25.36
56176;BME280;63065;51.082;17.016;2023-04-04T10:56:01;101282.77;;;7.98;25.31
56176;BME280;63065;51.082;17.016;2023-04-04T10:58:27;101285.49;;;7.93;24.98
56176;BME280;63065;51.082;17.016;2023-04-04T11:00:54;101289.04;;;8.15;24.98
56176;BME280;63065;51.082;17.016;2023-04-04T11:03:17;101280.70;;;7.91;24.70
56176;BME280;63065;51.082;17.016;2023-04-04T11:05:42;101273.19;;;8.21;22.96
56176;BME280;63065;51.082;17.016;2023-04-04T11:08:08;101269.10;;;7.87;24.24
56176;BME280;63065;51.082;17.016;2023-04-04T11:10:35;101265.60;;;8.24;24.37
56176;BME280;63065;51.082;17.016;2023-04-04T11:13:02;101271.81;;;8.37;24.18
56176;BME280;63065;51.082;17.016;2023-04-04T11:15:24;101270.92;;;8.09;25.02
56176;BME280;63065;51.082;17.016;2023-04-04T11:17:55;101267.94;;;8.48;25.00
56176;BME280;63065;51.082;17.016;2023-04-04T11:20:15;101261.95;;;7.70;24.15
56176;BME280;63065;51.082;17.016;2023-04-04T11:22:39;101260.74;;;8.06;24.18
56176;BME280;63065;51.082;17.016;2023-04-04T11:27:29;101255.93;;;8.72;23.43
56176;BME280;63065;51.082;17.016;2023-04-04T11:29:56;101256.91;;;8.27;24.21
56176;BME280;63065;51.082;17.016;2023-04-04T11:32:26;101258.71;;;8.23;24.43
56176;BME280;63065;51.082;17.016;2023-04-04T11:34:44;101252.03;;;8.05;24.55
56176;BME280;63065;51.082;17.016;2023-04-04T11:37:14;101256.54;;;8.54;24.32
56176;BME280;63065;51.082;17.016;2023-04-04T11:42:01;101252.57;;;8.09;25.12
56176;BME280;63065;51.082;17.016;2023-04-04T11:44:26;101252.81;;;7.64;24.64
56176;BME280;63065;51.082;17.016;2023-04-04T11:46:55;101255.94;;;8.39;24.82
56176;BME280;63065;51.082;17.016;2023-04-04T11:49:15;101254.45;;;8.81;24.28
56176;BME280;63065;51.082;17.016;2023-04-04T11:51:41;101259.80;;;8.28;24.46
56176;BME280;63065;51.082;17.016;2023-04-04T11:54:12;101255.76;;;8.93;25.09
56176;BME280;63065;51.082;17.016;2023-04-04T11:56:34;101250.74;;;8.13;25.66
56176;BME280;63065;51.082;17.016;2023-04-04T11:58:56;101255.55;;;7.69;25.83
56176;BME280;63065;51.082;17.016;2023-04-04T12:01:21;101254.20;;;7.20;26.62
56176;BME280;63065;51.082;17.016;2023-04-04T12:03:47;101256.16;;;7.85;26.17
56176;BME280;63065;51.082;17.016;2023-04-04T12:06:12;101256.69;;;8.22;25.86
56176;BME280;63065;51.082;17.016;2023-04-04T12:08:38;101254.13;;;8.09;25.69
56176;BME280;63065;51.082;17.016;2023-04-04T12:11:03;101251.03;;;8.69;25.42
56176;BME280;63065;51.082;17.016;2023-04-04T12:13:29;101248.12;;;7.86;25.54
56176;BME280;63065;51.082;17.016;2023-04-04T12:15:52;101251.74;;;8.54;25.01
56176;BME280;63065;51.082;17.016;2023-04-04T12:18:20;101249.03;;;8.02;25.77
56176;BME280;63065;51.082;17.016;2023-04-04T12:20:47;101246.81;;;7.37;25.90
56176;BME280;63065;51.082;17.016;2023-04-04T12:23:08;101252.66;;;7.46;26.82
56176;BME280;63065;51.082;17.016;2023-04-04T12:25:33;101246.52;;;7.86;25.08
56176;BME280;63065;51.082;17.016;2023-04-04T12:27:59;101240.33;;;7.85;27.18
56176;BME280;63065;51.082;17.016;2023-04-04T12:30:24;101240.32;;;8.00;25.49
56176;BME280;63065;51.082;17.016;2023-04-04T12:32:49;101235.75;;;8.66;25.86
56176;BME280;63065;51.082;17.016;2023-04-04T12:35:15;101236.56;;;7.30;25.47
56176;BME280;63065;51.082;17.016;2023-04-04T12:40:06;101230.32;;;7.78;26.38
56176;BME280;63065;51.082;17.016;2023-04-04T12:42:31;101236.71;;;8.06;26.58
56176;BME280;63065;51.082;17.016;2023-04-04T12:44:56;101232.38;;;7.61;25.97
56176;BME280;63065;51.082;17.016;2023-04-04T12:47:22;101223.19;;;7.61;25.89
56176;BME280;63065;51.082;17.016;2023-04-04T12:49:47;101224.26;;;7.85;27.00